createdAt,value
2023-02-26T00:01:47.274Z,8.90
2023-02-26T00:04:15.471Z,9.00
2023-02-26T00:06:53.685Z,8.90
2023-02-26T00:09:24.914Z,8.90
2023-02-26T00:11:53.350Z,8.90
2023-02-26T00:14:23.090Z,8.90
2023-02-26T00:17:10.363Z,8.90
2023-02-26T00:19:38.964Z,8.90
2023-02-26T00:22:07.642Z,8.90
2023-02-26T00:24:35.533Z,8.90
2023-02-26T00:27:03.433Z,8.90
2023-02-26T00:29:33.736Z,8.90
2023-02-26T00:32:02.527Z,8.90
2023-02-26T00:34:31.471Z,8.90
2023-02-26T00:37:14.121Z,8.80
2023-02-26T00:39:56.196Z,8.80
2023-02-26T00:42:25.576Z,8.80
2023-02-26T00:44:55.489Z,8.80
2023-02-26T00:47:33.269Z,8.80
2023-02-26T00:50:16.789Z,8.80
2023-02-26T00:52:55.453Z,8.80
2023-02-26T00:55:23.546Z,8.60
2023-02-26T00:57:51.478Z,8.80
2023-02-26T01:00:22.739Z,8.80
2023-02-26T01:02:51.865Z,8.80
2023-02-26T01:05:22.204Z,8.80
2023-02-26T01:08:02.933Z,8.60
2023-02-26T01:10:31.705Z,8.80
2023-02-26T01:13:00.574Z,8.80
2023-02-26T01:15:31.330Z,8.80
2023-02-26T01:18:08.637Z,8.70
2023-02-26T01:20:46.310Z,8.80
2023-02-26T01:23:17.415Z,8.70
2023-02-26T01:25:52.129Z,8.80
2023-02-26T01:28:20.642Z,8.80
2023-02-26T01:30:51.940Z,8.80
2023-02-26T01:33:28.585Z,8.70
2023-02-26T01:36:04.528Z,8.70
2023-02-26T01:38:46.000Z,8.70
2023-02-26T01:41:29.603Z,8.70
2023-02-26T01:44:24.648Z,8.70
2023-02-26T01:47:15.200Z,8.70
2023-02-26T01:49:44.074Z,8.70
2023-02-26T01:53:00.644Z,8.70
2023-02-26T01:55:30.795Z,8.70
2023-02-26T01:58:02.616Z,8.70
2023-02-26T02:00:32.496Z,8.70
2023-02-26T02:03:03.107Z,8.70
2023-02-26T02:05:40.175Z,8.70
2023-02-26T02:08:09.194Z,8.70
2023-02-26T02:10:37.165Z,8.70
2023-02-26T02:13:19.074Z,8.70
2023-02-26T02:16:05.778Z,8.60
2023-02-26T02:18:47.260Z,8.60
2023-02-26T02:21:46.418Z,8.60
2023-02-26T02:24:23.622Z,8.60
2023-02-26T02:27:05.497Z,8.60
2023-02-26T02:30:13.595Z,8.60
2023-02-26T02:32:50.525Z,8.60
2023-02-26T02:35:25.453Z,8.50
2023-02-26T02:38:06.604Z,8.40
2023-02-26T02:40:39.824Z,8.60
2023-02-26T02:43:14.134Z,8.60
2023-02-26T02:45:49.177Z,8.60
2023-02-26T02:48:25.360Z,8.60
2023-02-26T02:51:00.333Z,8.60
2023-02-26T02:53:37.289Z,8.60
2023-02-26T02:56:11.796Z,8.60
2023-02-26T02:58:45.538Z,8.60
2023-02-26T03:01:19.568Z,8.60
2023-02-26T03:03:58.938Z,8.60
2023-02-26T03:06:27.114Z,8.60
2023-02-26T03:08:55.421Z,8.60
2023-02-26T03:11:23.399Z,8.60
2023-02-26T03:13:53.568Z,8.60
2023-02-26T03:16:50.887Z,8.40
2023-02-26T03:19:32.448Z,8.50
2023-02-26T03:22:08.360Z,8.50
2023-02-26T03:25:05.569Z,8.50
2023-02-26T03:27:45.256Z,8.50
2023-02-26T03:30:21.699Z,8.50
2023-02-26T03:33:00.229Z,8.50
2023-02-26T03:35:37.164Z,8.50
2023-02-26T03:38:12.700Z,8.50
2023-02-26T03:40:48.774Z,8.50
2023-02-26T03:43:24.638Z,8.50
2023-02-26T03:45:59.865Z,8.50
2023-02-26T03:48:32.388Z,8.50
2023-02-26T03:51:06.689Z,8.40
2023-02-26T03:53:41.316Z,8.50
2023-02-26T03:56:22.744Z,8.40
2023-02-26T03:59:08.019Z,8.40
2023-02-26T04:02:06.397Z,8.40
2023-02-26T04:04:45.563Z,8.40
2023-02-26T04:07:18.393Z,8.40
2023-02-26T04:09:50.132Z,8.40
2023-02-26T04:12:23.853Z,8.40
2023-02-26T04:14:54.204Z,8.40
2023-02-26T04:17:22.231Z,8.40
2023-02-26T04:19:50.516Z,8.40
2023-02-26T04:22:20.558Z,8.40
2023-02-26T04:24:48.457Z,8.40
2023-02-26T04:27:18.298Z,8.40
2023-02-26T04:29:46.201Z,8.40
2023-02-26T04:32:14.286Z,8.40
2023-02-26T04:34:42.489Z,8.40
2023-02-26T04:37:11.620Z,8.40
2023-02-26T04:39:41.027Z,8.40
2023-02-26T04:42:09.793Z,8.40
2023-02-26T04:44:38.145Z,8.40
2023-02-26T04:47:06.158Z,8.40
2023-02-26T04:49:35.995Z,8.40
2023-02-26T04:52:03.990Z,8.40
2023-02-26T04:54:32.170Z,8.40
2023-02-26T04:57:01.769Z,8.40
2023-02-26T04:59:29.753Z,8.40
2023-02-26T05:01:59.025Z,8.40
2023-02-26T05:04:27.115Z,8.40
2023-02-26T05:06:59.165Z,8.40
2023-02-26T05:09:27.100Z,8.40
2023-02-26T05:11:55.020Z,8.40
2023-02-26T05:14:25.005Z,8.40
2023-02-26T05:16:52.934Z,8.40
2023-02-26T05:19:20.822Z,8.40
2023-02-26T05:21:50.755Z,8.40
2023-02-26T05:24:18.839Z,8.40
2023-02-26T05:26:46.853Z,8.40
2023-02-26T05:29:15.052Z,8.40
2023-02-26T05:31:44.437Z,8.40
2023-02-26T05:34:12.545Z,8.40
2023-02-26T05:36:40.478Z,8.40
2023-02-26T05:39:08.382Z,8.40
2023-02-26T05:41:36.269Z,8.40
2023-02-26T05:44:04.272Z,8.40
2023-02-26T05:46:32.234Z,8.40
2023-02-26T05:49:01.534Z,8.40
2023-02-26T05:51:29.433Z,8.40
2023-02-26T05:53:57.330Z,8.40
2023-02-26T05:56:25.447Z,8.40
2023-02-26T05:58:53.424Z,8.40
2023-02-26T06:01:21.443Z,8.40
2023-02-26T06:03:49.345Z,8.40
2023-02-26T06:06:18.746Z,8.40
2023-02-26T06:08:47.111Z,8.40
2023-02-26T06:11:15.614Z,8.40
2023-02-26T06:13:43.476Z,8.40
2023-02-26T06:16:11.366Z,8.40
2023-02-26T06:18:39.243Z,8.40
2023-02-26T06:21:07.360Z,8.40
2023-02-26T06:23:36.621Z,8.40
2023-02-26T06:26:05.146Z,8.40
2023-02-26T06:28:33.633Z,8.40
2023-02-26T06:31:01.569Z,8.40
2023-02-26T06:33:29.711Z,8.40
2023-02-26T06:36:00.161Z,8.40
2023-02-26T06:38:28.642Z,8.40
2023-02-26T06:40:58.048Z,8.40
2023-02-26T06:43:25.953Z,8.40
2023-02-26T06:45:53.835Z,8.40
2023-02-26T06:48:21.943Z,8.40
2023-02-26T06:50:49.845Z,8.40
2023-02-26T06:53:17.745Z,8.40
2023-02-26T06:55:46.932Z,8.40
2023-02-26T06:58:16.147Z,8.40
2023-02-26T07:00:44.241Z,8.40
2023-02-26T07:03:15.552Z,8.40
2023-02-26T07:05:43.967Z,8.40
2023-02-26T07:08:12.039Z,8.40
2023-02-26T07:10:41.101Z,8.40
2023-02-26T07:13:09.649Z,8.40
2023-02-26T07:15:38.914Z,8.40
2023-02-26T07:18:06.904Z,8.40
2023-02-26T07:20:35.204Z,8.40
2023-02-26T07:23:03.245Z,8.40
2023-02-26T07:25:31.145Z,8.40
2023-02-26T07:27:59.983Z,8.40
2023-02-26T07:30:28.458Z,8.40
2023-02-26T07:32:58.273Z,8.40
2023-02-26T07:35:26.260Z,8.40
2023-02-26T07:37:54.158Z,8.40
2023-02-26T07:40:22.055Z,8.40
2023-02-26T07:42:49.983Z,8.40
2023-02-26T07:45:22.245Z,8.40
2023-02-26T07:47:50.576Z,8.40
2023-02-26T07:50:20.912Z,8.20
2023-02-26T07:52:48.983Z,8.40
2023-02-26T07:55:17.052Z,8.40
2023-02-26T07:57:44.958Z,8.40
2023-02-26T08:00:15.046Z,8.40
2023-02-26T08:02:43.307Z,8.40
2023-02-26T08:05:11.941Z,8.40
2023-02-26T08:07:41.170Z,8.40
2023-02-26T08:10:11.804Z,8.40
2023-02-26T08:12:39.690Z,8.40
2023-02-26T08:15:08.911Z,8.40
2023-02-26T08:17:36.801Z,8.40
2023-02-26T08:20:05.811Z,8.40
2023-02-26T08:22:33.870Z,8.50
2023-02-26T08:25:03.115Z,8.50
2023-02-26T08:27:31.283Z,8.50
2023-02-26T08:29:59.223Z,8.50
2023-02-26T08:32:28.242Z,8.50
2023-02-26T08:34:56.406Z,8.50
2023-02-26T08:37:24.397Z,8.50
2023-02-26T08:39:52.446Z,8.50
2023-02-26T08:42:21.691Z,8.40
2023-02-26T08:44:49.669Z,8.50
2023-02-26T08:47:28.191Z,8.50
2023-02-26T08:49:56.919Z,8.60
2023-02-26T08:52:24.821Z,8.50
2023-02-26T08:54:53.318Z,8.60
2023-02-26T08:57:22.591Z,8.60
2023-02-26T08:59:50.526Z,8.60
2023-02-26T09:02:18.729Z,8.60
2023-02-26T09:04:47.288Z,8.60
2023-02-26T09:07:15.485Z,8.60
2023-02-26T09:09:43.340Z,8.60
2023-02-26T09:12:11.217Z,8.60
2023-02-26T09:14:40.466Z,8.60
2023-02-26T09:17:08.333Z,8.70
2023-02-26T09:19:36.335Z,8.70
2023-02-26T09:22:06.103Z,8.70
2023-02-26T09:24:34.271Z,8.70
2023-02-26T09:27:03.593Z,8.70
2023-02-26T09:29:31.509Z,8.70
2023-02-26T09:32:00.895Z,8.70
2023-02-26T09:34:28.898Z,8.70
2023-02-26T09:36:56.853Z,8.70
2023-02-26T09:39:25.240Z,8.80
2023-02-26T09:41:58.582Z,8.70
2023-02-26T09:44:29.266Z,8.70
2023-02-26T09:47:08.215Z,8.70
2023-02-26T09:49:51.805Z,8.70
2023-02-26T09:52:26.493Z,8.80
2023-02-26T09:55:01.039Z,8.80
2023-02-26T09:57:33.470Z,8.80
2023-02-26T10:00:02.980Z,8.80
2023-02-26T10:02:54.008Z,8.80
2023-02-26T10:05:32.550Z,8.80
2023-02-26T10:08:06.767Z,8.80
2023-02-26T10:10:46.096Z,8.80
2023-02-26T10:13:28.257Z,8.90
2023-02-26T10:16:05.427Z,8.90
2023-02-26T10:18:42.330Z,8.90
2023-02-26T10:21:16.284Z,8.90
2023-02-26T10:23:51.279Z,8.90
2023-02-26T10:26:24.752Z,8.90
2023-02-26T10:29:03.683Z,8.90
2023-02-26T10:31:39.721Z,8.80
2023-02-26T10:34:24.076Z,9.00
2023-02-26T10:37:00.437Z,9.00
2023-02-26T10:39:34.338Z,9.00
2023-02-26T10:42:12.257Z,9.00
2023-02-26T10:44:50.536Z,9.00
2023-02-26T10:47:32.663Z,9.00
2023-02-26T10:50:05.618Z,9.10
2023-02-26T10:52:36.992Z,9.10
2023-02-26T10:55:26.208Z,9.10
2023-02-26T10:58:04.284Z,9.10
2023-02-26T11:00:35.365Z,9.10
2023-02-26T11:03:05.846Z,9.10
2023-02-26T11:05:37.120Z,9.20
2023-02-26T11:08:14.641Z,9.20
2023-02-26T11:10:49.793Z,9.20
2023-02-26T11:13:17.799Z,9.20
2023-02-26T11:15:51.287Z,9.20
2023-02-26T11:18:24.374Z,9.20
2023-02-26T11:20:58.831Z,9.20
2023-02-26T11:23:31.171Z,9.20
2023-02-26T11:26:06.745Z,9.20
2023-02-26T11:28:43.964Z,9.20
2023-02-26T11:31:16.345Z,9.20
2023-02-26T11:33:50.436Z,9.20
2023-02-26T11:36:22.863Z,9.20
2023-02-26T11:38:56.705Z,9.20
2023-02-26T11:41:26.718Z,9.20
2023-02-26T11:44:03.779Z,9.20
2023-02-26T11:46:32.609Z,9.20
2023-02-26T11:49:02.771Z,9.20
2023-02-26T11:51:31.975Z,9.20
2023-02-26T11:54:02.214Z,9.30
2023-02-26T11:56:39.047Z,9.30
2023-02-26T11:59:16.812Z,9.30
2023-02-26T12:01:44.774Z,9.30
2023-02-26T12:04:20.111Z,9.30
2023-02-26T12:06:53.972Z,9.20
2023-02-26T12:09:22.938Z,9.30
2023-02-26T12:12:08.688Z,9.20
2023-02-26T12:15:09.028Z,9.20
2023-02-26T12:17:55.837Z,9.20
2023-02-26T12:20:33.109Z,9.20
2023-02-26T12:23:34.233Z,9.20
2023-02-26T12:26:23.518Z,9.20
2023-02-26T12:29:23.919Z,9.20
2023-02-26T12:32:23.776Z,9.20
2023-02-26T12:35:16.733Z,9.20
2023-02-26T12:38:06.191Z,9.20
2023-02-26T12:41:31.053Z,9.20
2023-02-26T12:44:10.134Z,9.20
2023-02-26T12:47:03.460Z,9.20
2023-02-26T12:49:54.372Z,9.20
2023-02-26T12:53:20.030Z,9.20
2023-02-26T12:56:05.810Z,9.20
2023-02-26T12:58:55.606Z,9.20
2023-02-26T13:02:25.803Z,9.20
2023-02-26T13:05:24.978Z,9.20
2023-02-26T13:08:09.370Z,9.20
2023-02-26T13:10:54.315Z,9.30
2023-02-26T13:13:52.705Z,9.30
2023-02-26T13:16:36.627Z,9.30
2023-02-26T13:19:29.670Z,9.30
2023-02-26T13:22:03.835Z,9.30
2023-02-26T13:24:41.205Z,9.30
2023-02-26T13:27:13.618Z,9.30
2023-02-26T13:29:49.215Z,9.40
2023-02-26T13:32:24.263Z,9.40
2023-02-26T13:34:58.824Z,9.40
2023-02-26T13:37:32.019Z,9.40
2023-02-26T13:40:36.662Z,9.40
2023-02-26T13:43:17.092Z,9.40
2023-02-26T13:45:57.265Z,9.40
2023-02-26T13:48:42.334Z,9.40
2023-02-26T13:51:25.456Z,9.40
2023-02-26T13:54:00.112Z,9.40
2023-02-26T13:56:53.577Z,9.40
2023-02-26T13:59:48.124Z,9.40
2023-02-26T14:02:54.749Z,9.40
2023-02-26T14:05:55.840Z,9.40
2023-02-26T14:08:52.716Z,9.40
2023-02-26T14:11:47.121Z,9.40
2023-02-26T14:14:40.449Z,9.40
2023-02-26T14:17:49.017Z,9.40
2023-02-26T14:20:25.697Z,9.20
2023-02-26T14:23:13.966Z,9.40
2023-02-26T14:25:49.120Z,9.40
2023-02-26T14:28:36.063Z,9.40
2023-02-26T14:31:18.135Z,9.40
2023-02-26T14:33:59.509Z,9.40
2023-02-26T14:36:36.522Z,9.40
2023-02-26T14:39:10.836Z,9.40
2023-02-26T14:41:42.420Z,9.50
2023-02-26T14:44:21.415Z,9.50
2023-02-26T14:46:52.079Z,9.50
2023-02-26T14:49:28.826Z,9.50
2023-02-26T14:52:29.712Z,9.40
2023-02-26T14:55:19.889Z,9.50
2023-02-26T14:58:04.472Z,9.50
2023-02-26T15:00:47.237Z,9.50
2023-02-26T15:03:50.371Z,9.50
2023-02-26T15:06:45.675Z,9.50
2023-02-26T15:09:23.173Z,9.50
2023-02-26T15:12:17.096Z,9.50
2023-02-26T15:15:05.131Z,9.50
2023-02-26T15:17:53.202Z,9.50
2023-02-26T15:20:34.611Z,9.50
2023-02-26T15:23:25.019Z,9.50
2023-02-26T15:25:53.012Z,9.50
2023-02-26T15:28:27.730Z,9.50
2023-02-26T15:31:00.412Z,9.40
2023-02-26T15:33:30.108Z,9.50
2023-02-26T15:36:00.892Z,9.50
2023-02-26T15:38:29.098Z,9.50
2023-02-26T15:41:03.873Z,9.50
2023-02-26T15:43:32.344Z,9.60
2023-02-26T15:46:03.495Z,9.60
2023-02-26T15:48:38.059Z,9.50
2023-02-26T15:51:09.809Z,9.60
2023-02-26T15:53:43.320Z,9.60
2023-02-26T15:56:19.567Z,9.60
2023-02-26T15:58:53.994Z,9.60
2023-02-26T16:01:26.315Z,9.60
2023-02-26T16:03:58.377Z,9.40
2023-02-26T16:06:30.741Z,9.60
2023-02-26T16:09:00.568Z,9.60
2023-02-26T16:11:34.120Z,9.50
2023-02-26T16:14:04.533Z,9.50
2023-02-26T16:16:43.232Z,9.50
2023-02-26T16:19:16.208Z,9.50
2023-02-26T16:21:45.892Z,9.50
2023-02-26T16:24:21.217Z,9.50
2023-02-26T16:26:56.129Z,9.50
2023-02-26T16:29:28.973Z,9.50
2023-02-26T16:32:03.012Z,9.50
2023-02-26T16:34:38.577Z,9.50
2023-02-26T16:37:25.864Z,9.50
2023-02-26T16:39:58.081Z,9.50
2023-02-26T16:42:46.388Z,9.50
2023-02-26T16:45:26.758Z,9.40
2023-02-26T16:48:00.356Z,9.50
2023-02-26T16:50:33.290Z,9.50
2023-02-26T16:53:15.799Z,9.50
2023-02-26T16:55:50.787Z,9.50
2023-02-26T16:58:21.848Z,9.50
2023-02-26T17:00:59.016Z,9.50
2023-02-26T17:03:30.949Z,9.50
2023-02-26T17:06:02.981Z,9.50
2023-02-26T17:08:36.398Z,9.40
2023-02-26T17:11:08.772Z,9.40
2023-02-26T17:13:38.268Z,9.50
2023-02-26T17:16:12.253Z,9.40
2023-02-26T17:18:41.544Z,9.40
2023-02-26T17:21:11.086Z,9.40
2023-02-26T17:23:40.077Z,9.40
2023-02-26T17:26:09.107Z,9.40
2023-02-26T17:28:42.626Z,9.40
2023-02-26T17:31:12.654Z,9.40
2023-02-26T17:33:45.324Z,9.40
2023-02-26T17:36:18.714Z,9.40
2023-02-26T17:38:47.581Z,9.40
2023-02-26T17:41:18.923Z,9.40
2023-02-26T17:43:46.860Z,9.40
2023-02-26T17:46:14.814Z,9.40
2023-02-26T17:48:43.997Z,9.40
2023-02-26T17:51:15.136Z,9.40
2023-02-26T17:53:46.478Z,9.40
2023-02-26T17:56:25.825Z,9.30
2023-02-26T17:58:55.212Z,9.40
2023-02-26T18:01:24.376Z,9.40
2023-02-26T18:03:54.601Z,9.40
2023-02-26T18:06:24.349Z,9.40
2023-02-26T18:08:52.456Z,9.40
2023-02-26T18:11:23.786Z,9.40
2023-02-26T18:13:52.258Z,9.40
2023-02-26T18:16:23.546Z,9.30
2023-02-26T18:18:54.027Z,9.30
2023-02-26T18:21:21.962Z,9.30
2023-02-26T18:23:50.027Z,9.30
2023-02-26T18:26:22.833Z,9.30
2023-02-26T18:28:51.785Z,9.30
2023-02-26T18:31:20.310Z,9.30
2023-02-26T18:33:48.796Z,9.30
2023-02-26T18:36:29.718Z,9.30
2023-02-26T18:39:01.348Z,9.30
2023-02-26T18:41:30.132Z,9.30
2023-02-26T18:43:58.020Z,9.30
2023-02-26T18:46:26.977Z,9.30
2023-02-26T18:48:55.074Z,9.30
2023-02-26T18:51:24.814Z,9.30
2023-02-26T18:53:53.066Z,9.30
2023-02-26T18:56:21.046Z,9.10
2023-02-26T18:58:48.935Z,9.30
2023-02-26T19:01:16.838Z,9.30
2023-02-26T19:03:44.768Z,9.30
2023-02-26T19:06:12.726Z,9.30
2023-02-26T19:08:41.957Z,9.30
2023-02-26T19:11:09.854Z,9.30
2023-02-26T19:13:38.225Z,9.30
2023-02-26T19:16:06.967Z,9.30
2023-02-26T19:18:34.953Z,9.30
2023-02-26T19:21:04.670Z,9.30
2023-02-26T19:23:32.661Z,9.30
2023-02-26T19:26:01.875Z,9.20
2023-02-26T19:28:29.773Z,9.20
2023-02-26T19:30:57.813Z,9.20
2023-02-26T19:33:26.144Z,9.20
2023-02-26T19:35:54.087Z,9.20
2023-02-26T19:38:23.449Z,9.20
2023-02-26T19:40:52.070Z,9.20
2023-02-26T19:43:23.269Z,9.20
2023-02-26T19:45:51.200Z,9.20
2023-02-26T19:48:21.058Z,9.20
2023-02-26T19:50:51.240Z,9.20
2023-02-26T19:53:19.463Z,9.10
2023-02-26T19:55:47.500Z,9.10
2023-02-26T19:58:15.402Z,9.10
2023-02-26T20:00:44.665Z,9.10
2023-02-26T20:03:13.157Z,9.10
2023-02-26T20:05:41.023Z,9.10
2023-02-26T20:08:08.940Z,9.10
2023-02-26T20:10:36.902Z,9.10
2023-02-26T20:13:04.996Z,9.10
2023-02-26T20:15:33.269Z,9.10
2023-02-26T20:18:02.479Z,9.10
2023-02-26T20:20:30.341Z,9.10
2023-02-26T20:22:58.287Z,9.10
2023-02-26T20:25:26.321Z,8.90
2023-02-26T20:27:54.231Z,9.00
2023-02-26T20:30:22.620Z,9.00
2023-02-26T20:32:50.645Z,9.00
2023-02-26T20:35:20.300Z,9.00
2023-02-26T20:37:48.963Z,9.00
2023-02-26T20:40:16.881Z,9.00
2023-02-26T20:42:44.744Z,9.00
2023-02-26T20:45:13.014Z,9.00
2023-02-26T20:47:40.972Z,9.00
2023-02-26T20:50:10.654Z,9.00
2023-02-26T20:52:39.975Z,9.00
2023-02-26T20:55:09.125Z,8.90
2023-02-26T20:57:37.013Z,8.90
2023-02-26T21:00:11.014Z,8.90
2023-02-26T21:02:39.660Z,8.80
2023-02-26T21:05:10.052Z,8.90
2023-02-26T21:07:39.989Z,8.90
2023-02-26T21:10:11.090Z,8.90
2023-02-26T21:12:39.606Z,8.90
2023-02-26T21:15:10.797Z,8.90
2023-02-26T21:17:40.834Z,8.80
2023-02-26T21:20:11.887Z,8.80
2023-02-26T21:22:41.402Z,8.80
2023-02-26T21:25:11.286Z,8.80
2023-02-26T21:27:39.755Z,8.80
2023-02-26T21:30:10.860Z,8.80
2023-02-26T21:32:39.157Z,8.80
2023-02-26T21:35:10.937Z,8.80
2023-02-26T21:37:39.077Z,8.80
2023-02-26T21:40:10.653Z,8.70
2023-02-26T21:42:38.608Z,8.70
2023-02-26T21:45:07.749Z,8.70
2023-02-26T21:47:35.767Z,8.70
2023-02-26T21:50:03.860Z,8.70
2023-02-26T21:52:31.739Z,8.70
2023-02-26T21:54:59.856Z,8.70
2023-02-26T21:57:29.279Z,8.60
2023-02-26T21:59:57.218Z,8.60
2023-02-26T22:02:25.494Z,8.60
2023-02-26T22:04:53.415Z,8.60
2023-02-26T22:07:21.476Z,8.60
2023-02-26T22:09:49.866Z,8.50
2023-02-26T22:12:18.161Z,8.50
2023-02-26T22:14:49.128Z,8.50
2023-02-26T22:17:17.110Z,8.50
2023-02-26T22:19:45.068Z,8.30
2023-02-26T22:22:13.045Z,8.40
2023-02-26T22:24:41.312Z,8.40
2023-02-26T22:27:09.428Z,8.40
2023-02-26T22:29:39.138Z,8.40
2023-02-26T22:32:08.447Z,8.40
2023-02-26T22:34:36.767Z,8.40
2023-02-26T22:37:05.072Z,8.30
2023-02-26T22:39:33.232Z,8.30
2023-02-26T22:42:01.194Z,8.30
2023-02-26T22:44:29.315Z,8.30
2023-02-26T22:46:57.236Z,8.30
2023-02-26T22:49:26.933Z,8.20
2023-02-26T22:51:54.803Z,8.20
2023-02-26T22:54:22.826Z,8.20
2023-02-26T22:56:50.825Z,8.20
2023-02-26T22:59:18.741Z,8.20
2023-02-26T23:01:46.622Z,8.20
2023-02-26T23:04:14.647Z,8.10
2023-02-26T23:06:43.884Z,8.10
2023-02-26T23:09:11.709Z,8.10
2023-02-26T23:11:39.613Z,8.10
2023-02-26T23:14:07.468Z,8.00
2023-02-26T23:16:35.408Z,8.00
2023-02-26T23:19:03.562Z,8.00
2023-02-26T23:21:31.942Z,8.00
2023-02-26T23:24:01.196Z,8.00
2023-02-26T23:26:29.330Z,8.00
2023-02-26T23:28:57.367Z,7.90
2023-02-26T23:31:25.901Z,7.90
2023-02-26T23:33:54.007Z,7.90
2023-02-26T23:36:21.996Z,7.90
2023-02-26T23:38:49.840Z,7.90
2023-02-26T23:41:19.921Z,7.80
2023-02-26T23:43:47.769Z,7.80
2023-02-26T23:46:15.753Z,7.80
2023-02-26T23:48:43.683Z,7.80
2023-02-26T23:51:11.597Z,7.80
2023-02-26T23:53:39.501Z,7.60
2023-02-26T23:56:08.529Z,7.70
2023-02-26T23:58:37.704Z,7.70
